TAF and METAR

METAR for Teniente R. Marsh Airport

SCRM 280500Z 27021KT 9999 FEW012 BKN120 M01/M02 Q0970 NOSIG
Report created 28. okt 06:00
wind 21 knots from W (270°) visibility > 10km some clouds (~25% cover) at 1200 feet broken clouds (~75% cover) at 12000 feet Temperature -1° with dewpoint at -2° (Humidity 92.91%) Pressure 970 hPa no significant weather change expected the next couple of hours
No TAF available for Teniente R. Marsh Airport
Teniente R. Marsh Airport in Chile at 45m

Latest 5 airports